createdAt,value
2022-10-11T00:01:10.635Z,101015.13
2022-10-11T00:03:41.163Z,101013.91
2022-10-11T00:06:11.728Z,101017.29
2022-10-11T00:08:42.195Z,101019.23
2022-10-11T00:11:13.039Z,101021.73
2022-10-11T00:13:43.652Z,101022.61
2022-10-11T00:16:15.573Z,101021.04
2022-10-11T00:18:45.887Z,101019.27
2022-10-11T00:21:17.842Z,101021.42
2022-10-11T00:23:48.864Z,101021.08
2022-10-11T00:26:19.388Z,101023.07
2022-10-11T00:28:52.405Z,101021.13
2022-10-11T00:31:23.661Z,101025.79
2022-10-11T00:33:55.617Z,101024.23
2022-10-11T00:36:25.972Z,101025.53
2022-10-11T00:38:56.312Z,101030.20
2022-10-11T00:41:26.754Z,101031.73
2022-10-11T00:47:01.419Z,101035.20
2022-10-11T00:49:37.504Z,101032.96
2022-10-11T00:52:15.087Z,101036.18
2022-10-11T00:54:48.232Z,101033.23
2022-10-11T00:57:21.662Z,101033.69
2022-10-11T00:59:55.182Z,101036.05
2022-10-11T01:02:27.374Z,101036.63
2022-10-11T01:05:25.092Z,101032.78
2022-10-11T01:07:49.448Z,101037.84
2022-10-11T01:10:19.967Z,101041.09
2022-10-11T01:13:02.910Z,101043.79
2022-10-11T01:15:42.256Z,101042.45
2022-10-11T01:18:20.654Z,101042.91
2022-10-11T01:21:06.246Z,101042.11
2022-10-11T01:24:18.943Z,101043.58
2022-10-11T01:27:26.548Z,101038.92
2022-10-11T01:30:06.268Z,101040.06
2022-10-11T01:32:44.833Z,101044.36
2022-10-11T01:35:22.581Z,101042.77
2022-10-11T01:38:01.480Z,101041.58
2022-10-11T01:40:37.272Z,101040.74
2022-10-11T01:43:09.836Z,101043.98
2022-10-11T01:45:41.558Z,101045.92
2022-10-11T01:48:14.579Z,101047.02
2022-10-11T01:50:48.839Z,101044.98
2022-10-11T01:53:45.246Z,101046.41
2022-10-11T01:56:38.347Z,101049.64
2022-10-11T01:59:36.456Z,101053.30
2022-10-11T02:02:19.849Z,101048.42
2022-10-11T02:04:55.815Z,101054.38
2022-10-11T02:07:32.458Z,101053.59
2022-10-11T02:10:09.135Z,101053.67
2022-10-11T02:12:44.110Z,101056.92
2022-10-11T02:15:17.788Z,101064.66
2022-10-11T02:17:56.554Z,101070.06
2022-10-11T02:20:33.486Z,101073.48
2022-10-11T02:23:09.018Z,101073.59
2022-10-11T02:25:39.851Z,101077.72
2022-10-11T02:28:16.054Z,101076.58
2022-10-11T02:30:48.991Z,101077.56
2022-10-11T02:33:23.446Z,101074.88
2022-10-11T02:35:59.932Z,101075.79
2022-10-11T02:38:35.933Z,101076.11
2022-10-11T02:41:13.968Z,101075.70
2022-10-11T02:43:52.954Z,101074.77
2022-10-11T02:46:26.133Z,101082.15
2022-10-11T02:48:57.443Z,101079.46
2022-10-11T02:51:27.043Z,101079.59
2022-10-11T02:53:57.516Z,101083.61
2022-10-11T02:56:27.981Z,101086.17
2022-10-11T02:58:58.422Z,101085.69
2022-10-11T03:01:31.754Z,101086.85
2022-10-11T03:04:02.982Z,101089.40
2022-10-11T03:06:35.128Z,101094.27
2022-10-11T03:09:06.227Z,101097.71
2022-10-11T03:11:36.973Z,101101.71
2022-10-11T03:14:07.612Z,101105.02
2022-10-11T03:16:39.755Z,101106.96
2022-10-11T03:19:10.817Z,101107.41
2022-10-11T03:21:41.167Z,101107.74
2022-10-11T03:24:11.865Z,101104.34
2022-10-11T03:26:43.521Z,101104.31
2022-10-11T03:29:14.026Z,101106.71
2022-10-11T03:31:44.994Z,101109.55
2022-10-11T03:34:15.938Z,101111.66
2022-10-11T03:36:46.327Z,101111.95
2022-10-11T03:39:17.335Z,101114.38
2022-10-11T03:41:48.082Z,101119.63
2022-10-11T03:44:18.667Z,101124.92
2022-10-11T03:46:49.155Z,101123.74
2022-10-11T03:49:19.884Z,101127.33
2022-10-11T03:51:50.486Z,101130.65
2022-10-11T03:54:21.120Z,101131.05
2022-10-11T03:56:51.726Z,101137.06
2022-10-11T03:59:22.325Z,101135.80
2022-10-11T04:01:59.554Z,101133.69
2022-10-11T04:04:32.806Z,101135.83
2022-10-11T04:07:06.207Z,101136.41
2022-10-11T04:09:37.693Z,101141.54
2022-10-11T04:12:08.541Z,101141.27
2022-10-11T04:14:41.519Z,101142.63
2022-10-11T04:17:12.000Z,101145.95
2022-10-11T04:19:43.420Z,101153.20
2022-10-11T04:22:14.212Z,101155.64
2022-10-11T04:24:44.654Z,101150.85
2022-10-11T04:27:15.514Z,101148.76
2022-10-11T04:30:08.906Z,101148.95
2022-10-11T04:32:47.337Z,101151.95
2022-10-11T04:35:18.154Z,101155.16
2022-10-11T04:37:51.563Z,101158.23
2022-10-11T04:40:28.614Z,101163.75
2022-10-11T04:42:59.623Z,101165.58
2022-10-11T04:45:30.033Z,101169.80
2022-10-11T04:48:03.654Z,101178.52
2022-10-11T04:50:34.242Z,101187.33
2022-10-11T04:53:04.756Z,101188.80
2022-10-11T04:55:36.598Z,101194.40
2022-10-11T04:58:09.694Z,101198.22
2022-10-11T05:00:40.166Z,101199.23
2022-10-11T05:03:12.080Z,101203.10
2022-10-11T05:05:43.781Z,101204.70
2022-10-11T05:08:14.813Z,101204.48
2022-10-11T05:10:55.326Z,101209.11
2022-10-11T05:13:26.460Z,101214.59
2022-10-11T05:15:57.116Z,101219.88
2022-10-11T05:18:28.153Z,101221.45
2022-10-11T05:21:04.803Z,101225.97
2022-10-11T05:23:39.095Z,101228.96
2022-10-11T05:26:09.759Z,101229.63
2022-10-11T05:28:40.463Z,101234.52
2022-10-11T05:34:44.876Z,101241.67
2022-10-11T05:37:17.838Z,101247.79
2022-10-11T05:39:49.028Z,101257.10
2022-10-11T05:42:19.105Z,101254.78
2022-10-11T05:44:49.827Z,101259.30
2022-10-11T05:47:20.149Z,101262.79
2022-10-11T05:49:50.682Z,101264.48
2022-10-11T05:52:21.973Z,101266.70
2022-10-11T05:54:51.419Z,101267.85
2022-10-11T05:57:22.994Z,101270.17
2022-10-11T05:59:55.582Z,101270.39
2022-10-11T06:02:27.464Z,101276.45
2022-10-11T06:04:58.142Z,101281.08
2022-10-11T06:07:31.834Z,101284.79
2022-10-11T06:10:02.434Z,101288.48
2022-10-11T06:12:33.607Z,101292.63
2022-10-11T06:15:04.548Z,101296.80
2022-10-11T06:17:34.945Z,101298.17
2022-10-11T06:20:06.930Z,101304.45
2022-10-11T06:22:37.226Z,101302.95
2022-10-11T06:25:09.167Z,101303.52
2022-10-11T06:27:39.879Z,101303.95
2022-10-11T06:30:11.741Z,101305.59
2022-10-11T06:32:42.569Z,101308.79
2022-10-11T06:35:13.394Z,101316.08
2022-10-11T06:37:46.430Z,101315.92
2022-10-11T06:40:17.001Z,101317.94
2022-10-11T06:42:52.034Z,101315.89
2022-10-11T06:45:22.411Z,101318.64
2022-10-11T06:47:52.735Z,101322.11
2022-10-11T06:50:47.192Z,101325.52
2022-10-11T06:53:13.589Z,101321.91
2022-10-11T06:55:44.045Z,101324.80
2022-10-11T06:58:14.397Z,101326.31
2022-10-11T07:00:48.479Z,101332.02
2022-10-11T07:03:18.863Z,101333.80
2022-10-11T07:05:49.386Z,101338.21
2022-10-11T07:08:20.483Z,101337.01
2022-10-11T07:10:51.561Z,101342.20
2022-10-11T07:13:21.917Z,101345.61
2022-10-11T07:15:52.274Z,101350.80
2022-10-11T07:18:23.189Z,101353.52
2022-10-11T07:20:53.498Z,101355.20
2022-10-11T07:23:26.870Z,101361.40
2022-10-11T07:25:57.096Z,101359.86
2022-10-11T07:28:29.955Z,101358.70
2022-10-11T07:31:04.887Z,101359.19
2022-10-11T07:33:35.378Z,101360.33
2022-10-11T07:36:07.842Z,101365.67
2022-10-11T07:38:42.010Z,101367.61
2022-10-11T07:41:13.059Z,101366.80
2022-10-11T07:43:43.784Z,101369.14
2022-10-11T07:46:14.377Z,101367.45
2022-10-11T07:48:44.946Z,101372.20
2022-10-11T07:51:17.746Z,101372.16
2022-10-11T07:53:49.553Z,101376.13
2022-10-11T07:56:22.259Z,101374.66
2022-10-11T07:58:54.866Z,101373.71
2022-10-11T08:01:26.218Z,101376.73
2022-10-11T08:03:57.920Z,101382.69
2022-10-11T08:06:29.310Z,101384.25
2022-10-11T08:09:01.893Z,101383.26
2022-10-11T08:11:34.392Z,101383.42
2022-10-11T08:14:09.743Z,101381.16
2022-10-11T08:16:41.106Z,101383.90
2022-10-11T08:19:12.419Z,101385.35
2022-10-11T08:21:41.332Z,101388.55
2022-10-11T08:24:13.674Z,101389.48
2022-10-11T08:26:44.318Z,101390.08
2022-10-11T08:29:15.371Z,101394.61
2022-10-11T08:31:46.000Z,101396.27
2022-10-11T08:34:16.504Z,101403.17
2022-10-11T08:36:48.582Z,101399.55
2022-10-11T08:39:19.088Z,101395.33
2022-10-11T08:41:54.017Z,101400.12
2022-10-11T08:44:58.418Z,101398.27
2022-10-11T08:47:27.472Z,101400.70
2022-10-11T08:49:59.219Z,101396.96
2022-10-11T08:52:34.775Z,101399.38
2022-10-11T08:55:12.638Z,101400.02
2022-10-11T08:57:45.316Z,101404.75
2022-10-11T09:00:19.823Z,101405.46
2022-10-11T09:03:08.520Z,101407.34
2022-10-11T09:05:58.519Z,101405.86
2022-10-11T09:08:38.473Z,101409.33
2022-10-11T09:11:15.228Z,101409.71
2022-10-11T09:14:15.841Z,101403.16
2022-10-11T09:17:02.570Z,101405.52
2022-10-11T09:19:51.841Z,101403.31
2022-10-11T09:22:30.852Z,101402.39
2022-10-11T09:25:18.674Z,101400.73
2022-10-11T09:28:03.895Z,101400.70
2022-10-11T09:30:38.194Z,101396.11
2022-10-11T09:33:17.546Z,101399.46
2022-10-11T09:35:51.586Z,101400.19
2022-10-11T09:38:31.850Z,101404.73
2022-10-11T09:41:15.980Z,101402.23
2022-10-11T09:43:52.404Z,101401.67
2022-10-11T09:46:30.169Z,101400.69
2022-10-11T09:49:03.501Z,101399.54
2022-10-11T09:51:35.502Z,101394.44
2022-10-11T09:54:10.464Z,101391.70
2022-10-11T09:56:48.885Z,101394.54
2022-10-11T09:59:29.416Z,101390.58
2022-10-11T10:02:25.828Z,101390.69
2022-10-11T10:05:15.820Z,101390.40
2022-10-11T10:10:59.626Z,101383.80
2022-10-11T10:13:30.623Z,101386.37
2022-10-11T10:16:01.352Z,101386.11
2022-10-11T10:18:36.770Z,101385.27
2022-10-11T10:21:13.290Z,101386.05
2022-10-11T10:23:44.606Z,101381.77
2022-10-11T10:26:16.330Z,101381.64
2022-10-11T10:29:03.714Z,101379.48
2022-10-11T10:31:55.331Z,101378.02
2022-10-11T10:34:34.321Z,101377.98
2022-10-11T10:37:08.926Z,101374.61
2022-10-11T10:39:45.577Z,101372.77
2022-10-11T10:42:19.459Z,101377.05
2022-10-11T10:44:55.189Z,101380.91
2022-10-11T10:47:45.978Z,101376.86
2022-10-11T10:50:24.488Z,101369.11
2022-10-11T10:53:10.132Z,101369.06
2022-10-11T10:55:44.086Z,101367.55
2022-10-11T10:58:31.518Z,101368.55
2022-10-11T11:01:09.703Z,101365.79
2022-10-11T11:03:47.595Z,101363.23
2022-10-11T11:06:29.724Z,101364.50
2022-10-11T11:09:18.924Z,101361.26
2022-10-11T11:12:01.435Z,101355.96
2022-10-11T11:14:41.320Z,101360.14
2022-10-11T11:17:21.728Z,101353.83
2022-10-11T11:20:05.112Z,101356.21
2022-10-11T11:22:46.491Z,101349.48
2022-10-11T11:25:23.876Z,101350.20
2022-10-11T11:28:14.735Z,101345.70
2022-10-11T11:30:59.784Z,101338.75
2022-10-11T11:33:46.357Z,101337.80
2022-10-11T11:36:26.873Z,101339.08
2022-10-11T11:39:00.980Z,101341.48
2022-10-11T11:41:38.517Z,101338.51
2022-10-11T11:44:17.601Z,101331.40
2022-10-11T11:46:54.481Z,101329.88
2022-10-11T11:49:30.386Z,101331.10
2022-10-11T11:52:01.700Z,101323.73
2022-10-11T11:54:37.485Z,101321.45
2022-10-11T11:57:16.545Z,101313.54
2022-10-11T11:59:52.149Z,101314.20
2022-10-11T12:02:49.040Z,101311.45
2022-10-11T12:05:23.856Z,101307.66
2022-10-11T12:07:59.721Z,101303.55
2022-10-11T12:10:37.646Z,101303.50
2022-10-11T12:13:20.009Z,101297.69
2022-10-11T12:16:00.940Z,101295.75
2022-10-11T12:18:33.203Z,101287.98
2022-10-11T12:21:17.580Z,101288.27
2022-10-11T12:23:52.130Z,101280.73
2022-10-11T12:26:41.810Z,101276.71
2022-10-11T12:29:43.527Z,101275.73
2022-10-11T12:32:52.028Z,101275.77
2022-10-11T12:36:08.403Z,101271.92
2022-10-11T12:38:44.832Z,101267.38
2022-10-11T12:41:50.390Z,101268.52
2022-10-11T12:44:27.019Z,101266.03
2022-10-11T12:47:17.359Z,101263.31
2022-10-11T12:50:03.298Z,101256.81
2022-10-11T12:52:49.823Z,101256.67
2022-10-11T12:55:43.322Z,101246.52
2022-10-11T12:58:27.351Z,101244.59
2022-10-11T13:01:19.478Z,101239.09
2022-10-11T13:04:01.304Z,101240.03
2022-10-11T13:06:35.626Z,101245.69
2022-10-11T13:09:14.148Z,101246.34
2022-10-11T13:11:51.330Z,101247.19
2022-10-11T13:14:23.465Z,101253.17
2022-10-11T13:17:07.554Z,101253.33
2022-10-11T13:22:20.067Z,101247.63
2022-10-11T13:24:50.673Z,101244.14
2022-10-11T13:27:24.885Z,101245.17
2022-10-11T13:30:02.137Z,101242.85
2022-10-11T13:32:35.121Z,101238.27
2022-10-11T13:35:09.976Z,101238.47
2022-10-11T13:37:45.342Z,101234.60
2022-10-11T13:40:19.326Z,101232.21
2022-10-11T13:42:51.015Z,101233.55
2022-10-11T13:45:23.466Z,101236.69
2022-10-11T13:47:56.013Z,101230.12
2022-10-11T13:50:32.397Z,101224.35
2022-10-11T13:53:05.459Z,101224.16
2022-10-11T13:55:51.490Z,101225.31
2022-10-11T13:58:29.754Z,101218.80
2022-10-11T14:01:03.006Z,101218.99
2022-10-11T14:03:41.914Z,101218.45
2022-10-11T14:06:19.736Z,101216.58
2022-10-11T14:08:54.462Z,101216.98
2022-10-11T14:11:37.427Z,101215.30
2022-10-11T14:14:38.232Z,101214.34
2022-10-11T14:17:15.598Z,101218.77
2022-10-11T14:19:47.827Z,101216.77
2022-10-11T14:22:19.141Z,101217.86
2022-10-11T14:24:51.012Z,101218.30
2022-10-11T14:27:24.430Z,101221.73
2022-10-11T14:30:23.536Z,101226.15
2022-10-11T14:32:46.175Z,101225.29
2022-10-11T14:35:22.583Z,101228.92
2022-10-11T14:37:53.653Z,101225.98
2022-10-11T14:40:23.774Z,101227.88
2022-10-11T14:42:54.919Z,101228.54
2022-10-11T14:45:24.052Z,101223.73
2022-10-11T14:47:54.609Z,101231.85
2022-10-11T14:50:33.056Z,101228.77
2022-10-11T14:53:05.851Z,101231.09
2022-10-11T14:55:37.740Z,101227.68
2022-10-11T14:58:09.641Z,101227.67
2022-10-11T15:00:40.897Z,101226.44
2022-10-11T15:03:09.996Z,101225.86
2022-10-11T15:05:40.568Z,101222.58
2022-10-11T15:08:12.761Z,101219.52
2022-10-11T15:10:43.424Z,101222.34
2022-10-11T15:13:14.068Z,101223.41
2022-10-11T15:15:45.689Z,101220.94
2022-10-11T15:18:17.626Z,101221.14
2022-10-11T15:20:48.856Z,101217.63
2022-10-11T15:23:17.733Z,101215.29
2022-10-11T15:25:48.180Z,101214.67
2022-10-11T15:28:27.293Z,101213.52
2022-10-11T15:30:58.771Z,101219.38
2022-10-11T15:33:29.372Z,101217.61
2022-10-11T15:35:59.763Z,101214.94
2022-10-11T15:38:30.444Z,101218.15
2022-10-11T15:41:01.734Z,101220.05
2022-10-11T15:43:30.917Z,101218.16
2022-10-11T15:46:03.132Z,101216.33
2022-10-11T15:48:34.159Z,101213.76
2022-10-11T15:51:04.619Z,101217.55
2022-10-11T15:53:35.450Z,101220.33
2022-10-11T15:56:08.597Z,101222.17
2022-10-11T15:58:41.636Z,101219.77
2022-10-11T16:01:15.668Z,101220.13
2022-10-11T16:03:46.684Z,101225.12
2022-10-11T16:06:17.173Z,101221.58
2022-10-11T16:08:47.952Z,101220.15
2022-10-11T16:11:18.280Z,101226.45
2022-10-11T16:13:49.567Z,101230.77
2022-10-11T16:16:18.422Z,101230.70
2022-10-11T16:18:50.401Z,101234.14
2022-10-11T16:21:21.494Z,101234.54
2022-10-11T16:23:51.805Z,101233.14
2022-10-11T16:26:22.209Z,101229.90
2022-10-11T16:28:52.556Z,101231.38
2022-10-11T16:31:23.034Z,101231.20
2022-10-11T16:33:54.402Z,101233.44
2022-10-11T16:36:32.770Z,101230.39
2022-10-11T16:39:05.888Z,101234.27
2022-10-11T16:41:36.196Z,101232.50
2022-10-11T16:44:06.906Z,101234.54
2022-10-11T16:46:37.573Z,101236.15
2022-10-11T16:49:08.271Z,101240.16
2022-10-11T16:51:38.676Z,101244.83
2022-10-11T16:54:09.358Z,101241.95
2022-10-11T16:56:40.287Z,101242.95
2022-10-11T16:59:10.747Z,101243.64
2022-10-11T17:01:41.776Z,101246.85
2022-10-11T17:04:12.984Z,101248.83
2022-10-11T17:06:44.098Z,101246.75
2022-10-11T17:09:14.586Z,101246.24
2022-10-11T17:11:45.383Z,101247.31
2022-10-11T17:14:15.960Z,101242.58
2022-10-11T17:16:47.145Z,101247.69
2022-10-11T17:19:18.258Z,101251.07
2022-10-11T17:21:48.605Z,101251.77
2022-10-11T17:24:19.057Z,101254.92
2022-10-11T17:26:49.409Z,101253.01
2022-10-11T17:29:21.121Z,101253.95
2022-10-11T17:31:52.317Z,101258.84
2022-10-11T17:34:22.871Z,101257.73
2022-10-11T17:36:53.285Z,101261.89
2022-10-11T17:39:25.674Z,101256.18
2022-10-11T17:41:56.530Z,101252.95
2022-10-11T17:44:27.010Z,101250.79
2022-10-11T17:46:57.271Z,101248.82
2022-10-11T17:49:27.604Z,101248.43
2022-10-11T17:51:58.068Z,101248.73
2022-10-11T17:54:30.636Z,101253.38
2022-10-11T17:57:01.433Z,101257.83
2022-10-11T17:59:32.238Z,101251.85
2022-10-11T18:02:02.719Z,101250.79
2022-10-11T18:04:33.118Z,101254.10
2022-10-11T18:07:03.519Z,101256.17
2022-10-11T18:09:34.850Z,101258.55
2022-10-11T18:12:03.695Z,101256.91
2022-10-11T18:14:34.024Z,101256.54
2022-10-11T18:17:04.688Z,101257.77
2022-10-11T18:19:35.078Z,101259.48
2022-10-11T18:22:07.186Z,101262.58
2022-10-11T18:24:39.204Z,101260.60
2022-10-11T18:27:09.887Z,101265.66
2022-10-11T18:29:40.580Z,101264.49
2022-10-11T18:32:12.009Z,101265.48
2022-10-11T18:34:41.175Z,101268.27
2022-10-11T18:37:11.573Z,101265.08
2022-10-11T18:39:41.869Z,101262.81
2022-10-11T18:42:12.332Z,101263.73
2022-10-11T18:44:42.652Z,101266.67
2022-10-11T18:47:13.050Z,101265.22
2022-10-11T18:49:43.469Z,101267.16
2022-10-11T18:52:14.152Z,101272.09
2022-10-11T18:54:44.750Z,101274.00
2022-10-11T18:57:15.199Z,101274.83
2022-10-11T18:59:45.680Z,101270.73
2022-10-11T19:02:16.084Z,101274.70
2022-10-11T19:04:52.483Z,101277.08
2022-10-11T19:07:23.988Z,101273.67
2022-10-11T19:09:54.603Z,101271.85
2022-10-11T19:12:33.214Z,101272.81
2022-10-11T19:15:03.688Z,101270.09
2022-10-11T19:17:34.200Z,101268.76
2022-10-11T19:20:05.339Z,101267.71
2022-10-11T19:22:38.026Z,101271.05
2022-10-11T19:25:09.492Z,101267.52
2022-10-11T19:27:39.909Z,101265.43
2022-10-11T19:30:11.922Z,101263.36
2022-10-11T19:32:42.356Z,101260.79
2022-10-11T19:35:17.658Z,101257.13
2022-10-11T19:37:50.478Z,101258.81
2022-10-11T19:40:21.038Z,101258.98
2022-10-11T19:42:51.816Z,101257.41
2022-10-11T19:45:22.454Z,101255.64
2022-10-11T19:47:53.054Z,101256.86
2022-10-11T19:50:23.499Z,101260.23
2022-10-11T19:52:53.985Z,101261.64
2022-10-11T19:55:24.784Z,101259.33
2022-10-11T19:57:55.271Z,101258.79
2022-10-11T20:00:25.723Z,101258.63
2022-10-11T20:02:56.191Z,101257.73
2022-10-11T20:05:26.778Z,101258.72
2022-10-11T20:07:57.239Z,101262.35
2022-10-11T20:10:27.739Z,101262.84
2022-10-11T20:12:58.125Z,101270.70
2022-10-11T20:15:28.682Z,101272.45
2022-10-11T20:17:59.605Z,101271.50
2022-10-11T20:20:30.224Z,101274.25
2022-10-11T20:23:01.295Z,101274.80
2022-10-11T20:25:31.860Z,101277.80
2022-10-11T20:28:02.308Z,101278.86
2022-10-11T20:30:32.754Z,101278.66
2022-10-11T20:33:03.190Z,101278.29
2022-10-11T20:35:33.725Z,101280.06
2022-10-11T20:38:04.479Z,101279.02
2022-10-11T20:40:35.076Z,101277.95
2022-10-11T20:43:05.379Z,101276.49
2022-10-11T20:45:35.846Z,101280.46
2022-10-11T20:48:06.388Z,101278.32
2022-10-11T20:50:36.811Z,101282.50
2022-10-11T20:53:07.236Z,101284.75
2022-10-11T20:55:37.509Z,101286.80
2022-10-11T20:58:08.057Z,101285.16
2022-10-11T21:00:41.442Z,101286.67
2022-10-11T21:03:12.480Z,101291.77
2022-10-11T21:05:43.374Z,101293.05
2022-10-11T21:08:13.804Z,101288.89
2022-10-11T21:10:53.585Z,101290.67
2022-10-11T21:13:24.355Z,101288.23
2022-10-11T21:15:54.658Z,101286.04
2022-10-11T21:18:24.890Z,101286.12
2022-10-11T21:20:55.493Z,101285.81
2022-10-11T21:23:25.854Z,101286.94
2022-10-11T21:26:00.575Z,101284.66
2022-10-11T21:28:31.019Z,101283.28
2022-10-11T21:31:07.258Z,101283.11
2022-10-11T21:33:38.681Z,101282.28
2022-10-11T21:36:08.793Z,101279.48
2022-10-11T21:38:39.369Z,101271.42
2022-10-11T21:41:12.725Z,101273.89
2022-10-11T21:43:43.120Z,101272.17
2022-10-11T21:46:16.419Z,101274.17
2022-10-11T21:48:46.913Z,101275.44
2022-10-11T21:51:21.218Z,101269.52
2022-10-11T21:53:52.242Z,101268.20
2022-10-11T21:56:23.320Z,101268.25
2022-10-11T21:58:53.833Z,101263.73
2022-10-11T22:01:24.316Z,101259.60
2022-10-11T22:03:55.318Z,101257.59
2022-10-11T22:06:25.772Z,101254.92
2022-10-11T22:08:56.216Z,101252.50
2022-10-11T22:11:26.747Z,101251.69
2022-10-11T22:13:57.121Z,101252.52
2022-10-11T22:16:27.478Z,101250.20
2022-10-11T22:18:57.999Z,101248.58
2022-10-11T22:21:28.410Z,101247.84
2022-10-11T22:23:58.812Z,101249.22
2022-10-11T22:26:31.551Z,101252.38
2022-10-11T22:29:02.138Z,101248.36
2022-10-11T22:31:32.736Z,101244.65
2022-10-11T22:34:03.294Z,101242.34
2022-10-11T22:36:33.638Z,101241.02
2022-10-11T22:39:07.725Z,101242.55
2022-10-11T22:41:38.783Z,101241.59
2022-10-11T22:44:09.534Z,101245.19
2022-10-11T22:46:39.981Z,101242.27
2022-10-11T22:49:10.352Z,101246.42
2022-10-11T22:51:40.598Z,101247.73
2022-10-11T22:54:11.557Z,101243.23
2022-10-11T22:56:42.683Z,101237.81
2022-10-11T22:59:13.076Z,101236.46
2022-10-11T23:01:43.461Z,101234.73
2022-10-11T23:04:13.949Z,101236.70
2022-10-11T23:06:44.386Z,101235.16
2022-10-11T23:09:14.831Z,101233.67
2022-10-11T23:11:45.272Z,101230.26
2022-10-11T23:14:15.982Z,101230.02
2022-10-11T23:16:46.468Z,101227.77
2022-10-11T23:19:16.935Z,101226.06
2022-10-11T23:21:47.703Z,101224.91
2022-10-11T23:24:18.145Z,101222.45
2022-10-11T23:26:48.623Z,101221.75
2022-10-11T23:29:19.393Z,101220.35
2022-10-11T23:31:49.818Z,101223.89
2022-10-11T23:34:20.224Z,101224.52
2022-10-11T23:36:50.751Z,101221.05
2022-10-11T23:39:21.188Z,101222.83
2022-10-11T23:41:51.621Z,101221.64
2022-10-11T23:44:22.043Z,101219.94
2022-10-11T23:46:52.414Z,101216.27
2022-10-11T23:49:22.749Z,101220.83
2022-10-11T23:51:53.150Z,101220.66
2022-10-11T23:54:23.836Z,101219.25
2022-10-11T23:56:54.265Z,101217.51
2022-10-11T23:59:24.730Z,101218.60
